createdAt,value
2019-05-17T00:01:07.076Z,99.90
2019-05-17T00:03:09.846Z,99.90
2019-05-17T00:05:13.725Z,99.90
2019-05-17T00:07:17.199Z,99.90
2019-05-17T00:09:20.818Z,99.90
2019-05-17T00:11:27.181Z,99.90
2019-05-17T00:13:30.026Z,99.90
2019-05-17T00:15:33.723Z,99.90
2019-05-17T00:17:38.015Z,99.90
2019-05-17T00:19:41.719Z,99.90
2019-05-17T00:21:47.328Z,99.90
2019-05-17T00:23:50.450Z,99.90
2019-05-17T00:25:56.280Z,99.90
2019-05-17T00:27:59.185Z,99.90
2019-05-17T00:30:02.900Z,99.90
2019-05-17T00:32:06.854Z,99.90
2019-05-17T00:34:10.437Z,99.90
2019-05-17T00:36:13.914Z,99.90
2019-05-17T00:38:17.567Z,99.90
2019-05-17T00:40:21.174Z,99.90
2019-05-17T00:42:26.463Z,99.90
2019-05-17T00:44:30.164Z,99.90
2019-05-17T00:46:33.629Z,99.90
2019-05-17T00:48:37.581Z,99.90
2019-05-17T00:50:41.276Z,99.90
2019-05-17T00:52:47.246Z,99.90
2019-05-17T00:54:50.006Z,99.90
2019-05-17T00:56:53.594Z,99.90
2019-05-17T00:58:57.066Z,99.90
2019-05-17T01:01:00.622Z,99.90
2019-05-17T01:03:06.804Z,99.90
2019-05-17T01:05:12.299Z,99.90
2019-05-17T01:07:17.760Z,99.90
2019-05-17T01:09:21.413Z,99.90
2019-05-17T01:11:27.113Z,99.90
2019-05-17T01:13:30.426Z,99.90
2019-05-17T01:15:33.965Z,99.90
2019-05-17T01:17:37.989Z,99.90
2019-05-17T01:19:41.457Z,99.90
2019-05-17T01:21:47.265Z,99.90
2019-05-17T01:23:50.746Z,99.90
2019-05-17T01:25:56.540Z,99.90
2019-05-17T01:27:59.543Z,99.90
2019-05-17T01:30:06.705Z,99.90
2019-05-17T01:32:10.022Z,99.90
2019-05-17T01:34:13.798Z,99.90
2019-05-17T01:36:17.469Z,99.90
2019-05-17T01:38:21.349Z,99.90
2019-05-17T01:40:26.483Z,99.90
2019-05-17T01:42:30.197Z,99.90
2019-05-17T01:44:33.776Z,99.90
2019-05-17T01:46:37.255Z,99.90
2019-05-17T01:48:40.801Z,99.90
2019-05-17T01:50:46.371Z,99.90
2019-05-17T01:52:49.513Z,99.90
2019-05-17T01:54:53.056Z,99.90
2019-05-17T01:56:56.759Z,99.90
2019-05-17T01:59:00.493Z,99.90
2019-05-17T02:01:04.113Z,99.90
2019-05-17T02:03:08.509Z,99.90
2019-05-17T02:05:13.365Z,99.90
2019-05-17T02:07:18.041Z,99.90
2019-05-17T02:09:36.837Z,99.90
2019-05-17T02:11:27.601Z,99.90
2019-05-17T02:13:31.153Z,99.90
2019-05-17T02:15:37.462Z,99.90
2019-05-17T02:17:40.653Z,99.90
2019-05-17T02:19:46.455Z,99.90
2019-05-17T02:21:49.575Z,99.90
2019-05-17T02:23:53.065Z,99.90
2019-05-17T02:25:57.142Z,99.90
2019-05-17T02:28:01.518Z,99.90
2019-05-17T02:30:07.203Z,99.90
2019-05-17T02:32:12.872Z,99.90
2019-05-17T02:34:16.534Z,99.90
2019-05-17T02:36:22.626Z,99.90
2019-05-17T02:38:25.223Z,99.90
2019-05-17T02:40:29.227Z,99.90
2019-05-17T02:42:33.518Z,99.90
2019-05-17T02:44:37.467Z,99.90
2019-05-17T02:46:43.404Z,99.90
2019-05-17T02:48:46.701Z,99.90
2019-05-17T02:50:53.178Z,99.90
2019-05-17T02:52:55.662Z,99.90
2019-05-17T02:54:59.279Z,99.90
2019-05-17T02:57:03.340Z,99.90
2019-05-17T02:59:07.087Z,99.90
2019-05-17T03:01:12.719Z,99.90
2019-05-17T03:03:16.105Z,99.90
2019-05-17T03:05:22.983Z,99.90
2019-05-17T03:07:25.290Z,99.90
2019-05-17T03:09:28.835Z,99.90
2019-05-17T03:11:33.491Z,99.90
2019-05-17T03:13:37.404Z,99.90
2019-05-17T03:15:43.257Z,99.90
2019-05-17T03:17:46.278Z,99.90
2019-05-17T03:19:53.040Z,99.90
2019-05-17T03:21:55.285Z,99.90
2019-05-17T03:23:58.829Z,99.90
2019-05-17T03:26:03.563Z,99.90
2019-05-17T03:28:07.684Z,99.90
2019-05-17T03:30:17.502Z,99.90
2019-05-17T03:32:18.194Z,99.90
2019-05-17T03:34:26.519Z,99.90
2019-05-17T03:36:28.914Z,99.90
2019-05-17T03:38:32.918Z,99.90
2019-05-17T03:41:03.250Z,99.90
2019-05-17T03:42:42.889Z,99.90
2019-05-17T03:44:46.646Z,99.90
2019-05-17T03:46:52.963Z,99.90
2019-05-17T03:48:55.768Z,99.90
2019-05-17T03:51:02.352Z,99.90
2019-05-17T03:53:04.711Z,99.90
2019-05-17T03:55:08.319Z,99.90
2019-05-17T03:57:13.418Z,99.90
2019-05-17T03:59:17.250Z,99.90
2019-05-17T04:01:23.133Z,99.90
2019-05-17T04:03:26.252Z,99.90
2019-05-17T04:05:33.084Z,99.90
2019-05-17T04:07:35.345Z,99.90
2019-05-17T04:09:43.454Z,99.90
2019-05-17T04:11:45.562Z,99.90
2019-05-17T04:13:49.107Z,99.90
2019-05-17T04:15:53.173Z,99.90
2019-05-17T04:17:56.877Z,99.90
2019-05-17T04:20:03.270Z,99.90
2019-05-17T04:22:05.681Z,99.90
2019-05-17T04:24:12.411Z,99.90
2019-05-17T04:26:14.947Z,99.90
2019-05-17T04:28:18.483Z,99.90
2019-05-17T04:30:23.371Z,99.90
2019-05-17T04:32:27.142Z,99.90
2019-05-17T04:34:33.643Z,99.90
2019-05-17T04:36:35.950Z,99.90
2019-05-17T04:38:43.347Z,99.90
2019-05-17T04:40:45.015Z,99.90
2019-05-17T04:42:48.929Z,99.90
2019-05-17T04:44:52.933Z,99.90
2019-05-17T04:46:57.047Z,99.90
2019-05-17T04:49:03.010Z,99.90
2019-05-17T04:51:05.831Z,99.90
2019-05-17T04:53:09.377Z,99.90
2019-05-17T04:55:14.180Z,99.90
2019-05-17T04:57:18.072Z,99.90
2019-05-17T04:59:24.358Z,99.90
2019-05-17T05:01:26.930Z,99.90
2019-05-17T05:03:32.661Z,99.90
2019-05-17T05:05:36.029Z,99.90
2019-05-17T05:07:43.191Z,99.90
2019-05-17T05:09:45.794Z,99.90
2019-05-17T05:11:56.991Z,99.90
2019-05-17T05:13:55.397Z,99.90
2019-05-17T05:15:59.250Z,99.90
2019-05-17T05:18:02.796Z,99.90
2019-05-17T05:20:07.787Z,99.90
2019-05-17T05:22:13.578Z,99.90
2019-05-17T05:24:16.525Z,99.90
2019-05-17T05:26:22.227Z,99.90
2019-05-17T05:28:25.850Z,99.90
2019-05-17T05:30:31.867Z,99.90
2019-05-17T05:32:34.997Z,99.90
2019-05-17T05:34:38.893Z,99.90
2019-05-17T05:36:42.500Z,99.90
2019-05-17T05:38:46.397Z,99.90
2019-05-17T05:40:51.998Z,99.90
2019-05-17T05:42:55.139Z,99.90
2019-05-17T05:44:59.034Z,99.90
2019-05-17T05:47:02.937Z,99.90
2019-05-17T05:49:06.977Z,99.90
2019-05-17T05:51:13.452Z,99.90
2019-05-17T05:53:16.205Z,99.90
2019-05-17T05:55:23.166Z,99.90
2019-05-17T05:57:25.301Z,99.90
2019-05-17T05:59:28.847Z,99.90
2019-05-17T06:01:32.748Z,99.90
2019-05-17T06:03:36.373Z,99.90
2019-05-17T06:05:42.242Z,99.90
2019-05-17T06:07:45.570Z,99.90
2019-05-17T06:09:51.602Z,99.90
2019-05-17T06:11:54.421Z,99.90
2019-05-17T06:13:58.640Z,99.90
2019-05-17T06:16:02.693Z,99.90
2019-05-17T06:18:06.611Z,99.90
2019-05-17T06:20:11.807Z,99.90
2019-05-17T06:22:15.588Z,99.90
2019-05-17T06:24:19.070Z,99.90
2019-05-17T06:26:23.703Z,99.90
2019-05-17T06:28:28.477Z,99.90
2019-05-17T06:30:32.478Z,99.90
2019-05-17T06:32:36.044Z,99.90
2019-05-17T06:34:42.049Z,99.90
2019-05-17T06:36:44.857Z,99.90
2019-05-17T06:38:49.059Z,99.90
2019-05-17T06:40:52.651Z,99.90
2019-05-17T06:42:56.559Z,99.90
2019-05-17T06:45:02.152Z,99.90
2019-05-17T06:47:05.657Z,99.90
2019-05-17T06:49:11.564Z,99.90
2019-05-17T06:51:14.328Z,99.90
2019-05-17T06:53:18.438Z,99.90
2019-05-17T06:55:24.209Z,99.90
2019-05-17T06:57:27.583Z,99.90
2019-05-17T06:59:31.120Z,99.90
2019-05-17T07:01:34.593Z,99.90
2019-05-17T07:03:39.954Z,99.90
2019-05-17T07:05:45.233Z,99.90
2019-05-17T07:07:49.817Z,99.90
2019-05-17T07:09:53.961Z,99.90
2019-05-17T07:11:59.552Z,99.90
2019-05-17T07:14:02.748Z,99.90
2019-05-17T07:16:06.753Z,99.90
2019-05-17T07:18:11.186Z,99.90
2019-05-17T07:20:14.805Z,99.90
2019-05-17T07:22:21.007Z,99.90
2019-05-17T07:24:23.705Z,99.90
2019-05-17T07:26:27.209Z,99.90
2019-05-17T07:28:30.678Z,99.90
2019-05-17T07:30:34.559Z,99.90
2019-05-17T07:32:40.303Z,99.90
2019-05-17T07:34:43.802Z,99.90
2019-05-17T07:36:47.351Z,99.90
2019-05-17T07:38:50.891Z,99.90
2019-05-17T07:40:54.929Z,99.90
2019-05-17T07:43:10.164Z,99.90
2019-05-17T07:45:06.173Z,99.90
2019-05-17T07:47:09.995Z,99.90
2019-05-17T07:49:13.535Z,99.90
2019-05-17T07:51:19.368Z,99.90
2019-05-17T07:53:22.310Z,99.90
2019-05-17T07:55:26.500Z,99.90
2019-05-17T07:57:30.444Z,99.90
2019-05-17T07:59:34.069Z,99.90
2019-05-17T08:01:37.641Z,99.90
2019-05-17T08:03:44.319Z,99.90
2019-05-17T08:05:50.465Z,99.90
2019-05-17T08:07:53.541Z,99.90
2019-05-17T08:09:57.121Z,99.90
2019-05-17T08:12:00.602Z,99.90
2019-05-17T08:14:04.825Z,99.90
2019-05-17T08:16:10.318Z,99.90
2019-05-17T08:18:14.014Z,99.90
2019-05-17T08:20:20.239Z,99.90
2019-05-17T08:22:23.157Z,99.90
2019-05-17T08:24:26.620Z,99.90
2019-05-17T08:26:30.541Z,99.90
2019-05-17T08:28:34.443Z,99.90
2019-05-17T08:30:40.546Z,99.90
2019-05-17T08:32:44.018Z,99.90
2019-05-17T08:34:49.543Z,99.90
2019-05-17T08:36:53.102Z,99.90
2019-05-17T08:38:56.935Z,99.90
2019-05-17T08:41:00.878Z,99.90
2019-05-17T08:43:04.956Z,99.90
2019-05-17T08:45:09.824Z,99.90
2019-05-17T08:47:13.394Z,99.90
2019-05-17T08:49:16.942Z,99.90
2019-05-17T08:51:21.103Z,99.90
2019-05-17T08:53:24.630Z,99.90
2019-05-17T08:55:29.911Z,99.90
2019-05-17T08:57:33.921Z,99.90
2019-05-17T08:59:40.208Z,99.90
2019-05-17T09:01:43.155Z,99.90
2019-05-17T09:03:46.800Z,99.90
2019-05-17T09:05:52.742Z,99.90
2019-05-17T09:07:55.929Z,99.90
2019-05-17T09:10:01.597Z,99.90
2019-05-17T09:12:04.740Z,99.90
2019-05-17T09:14:10.300Z,99.90
2019-05-17T09:16:13.637Z,99.90
2019-05-17T09:18:17.171Z,99.90
2019-05-17T09:20:20.789Z,99.90
2019-05-17T09:22:24.585Z,99.90
2019-05-17T09:24:30.043Z,99.90
2019-05-17T09:26:33.949Z,99.90
2019-05-17T09:28:39.402Z,99.90
2019-05-17T09:30:43.438Z,99.90
2019-05-17T09:32:47.266Z,99.90
2019-05-17T09:34:51.761Z,99.90
2019-05-17T09:36:55.298Z,99.90
2019-05-17T09:39:00.075Z,99.90
2019-05-17T09:41:04.046Z,99.90
2019-05-17T09:43:10.138Z,99.90
2019-05-17T09:45:14.386Z,99.90
2019-05-17T09:47:20.583Z,99.90
2019-05-17T09:49:23.934Z,99.90
2019-05-17T09:51:30.264Z,99.90
2019-05-17T09:53:33.081Z,99.90
2019-05-17T09:55:36.638Z,99.90
2019-05-17T09:57:41.180Z,99.90
2019-05-17T09:59:45.057Z,99.90
2019-05-17T10:01:49.512Z,99.90
2019-05-17T10:03:53.218Z,99.90
2019-05-17T10:05:56.825Z,99.90
2019-05-17T10:08:00.594Z,99.90
2019-05-17T10:10:06.476Z,99.90
2019-05-17T10:12:10.473Z,99.90
2019-05-17T10:14:24.700Z,99.90
2019-05-17T10:16:20.230Z,99.90
2019-05-17T10:18:24.068Z,99.90
2019-05-17T10:20:29.271Z,99.90
2019-05-17T10:22:32.869Z,99.90
2019-05-17T10:24:39.660Z,99.90
2019-05-17T10:26:41.753Z,99.90
2019-05-17T10:28:45.298Z,99.90
2019-05-17T10:30:52.336Z,99.90
2019-05-17T10:32:54.152Z,99.90
2019-05-17T10:35:00.116Z,99.90
2019-05-17T10:37:02.958Z,99.90
2019-05-17T10:39:09.849Z,99.90
2019-05-17T10:41:13.087Z,99.90
2019-05-17T10:43:16.620Z,99.90
2019-05-17T10:45:20.267Z,99.90
2019-05-17T10:47:23.894Z,99.90
2019-05-17T10:49:29.510Z,99.90
2019-05-17T10:51:33.049Z,99.90
2019-05-17T10:53:36.521Z,99.90
2019-05-17T10:55:40.061Z,99.90
2019-05-17T10:57:44.002Z,99.90
2019-05-17T10:59:49.753Z,99.90
2019-05-17T11:01:53.162Z,99.90
2019-05-17T11:03:56.700Z,99.90
2019-05-17T11:06:02.239Z,99.90
2019-05-17T11:08:05.786Z,99.90
2019-05-17T11:10:11.547Z,99.90
2019-05-17T11:12:15.004Z,99.90
2019-05-17T11:14:18.585Z,99.90
2019-05-17T11:16:22.477Z,99.90
2019-05-17T11:18:26.097Z,99.90
2019-05-17T11:20:29.753Z,99.90
2019-05-17T11:22:33.643Z,99.90
2019-05-17T11:24:37.478Z,99.90
2019-05-17T11:26:41.081Z,99.90
2019-05-17T11:28:44.872Z,99.80
2019-05-17T11:30:48.579Z,99.90
2019-05-17T11:32:52.483Z,99.90
2019-05-17T11:34:56.027Z,99.90
2019-05-17T11:36:59.878Z,99.90
2019-05-17T11:39:05.374Z,99.90
2019-05-17T11:41:20.355Z,99.90
2019-05-17T11:43:15.002Z,99.90
2019-05-17T11:45:27.304Z,99.90
2019-05-17T11:47:23.931Z,99.90
2019-05-17T11:49:27.401Z,99.90
2019-05-17T11:51:31.226Z,99.90
2019-05-17T11:53:34.778Z,99.90
2019-05-17T11:55:38.805Z,99.90
2019-05-17T11:57:42.281Z,99.90
2019-05-17T11:59:45.862Z,99.90
2019-05-17T12:01:49.418Z,99.90
2019-05-17T12:03:52.984Z,99.90
2019-05-17T12:05:56.519Z,99.90
2019-05-17T12:08:00.053Z,99.90
2019-05-17T12:10:07.632Z,99.90
2019-05-17T12:12:11.153Z,99.90
2019-05-17T12:14:15.567Z,99.90
2019-05-17T12:16:19.349Z,99.90
2019-05-17T12:18:23.251Z,99.90
2019-05-17T12:20:27.231Z,99.90
2019-05-17T12:22:30.843Z,99.90
2019-05-17T12:24:34.391Z,99.90
2019-05-17T12:26:37.974Z,99.90
2019-05-17T12:28:41.644Z,99.90
2019-05-17T12:30:46.010Z,99.90
2019-05-17T12:32:49.514Z,99.90
2019-05-17T12:34:53.417Z,99.90
2019-05-17T12:36:57.319Z,99.90
2019-05-17T12:39:01.222Z,99.90
2019-05-17T12:41:04.825Z,99.90
2019-05-17T12:43:08.532Z,99.90
2019-05-17T12:45:12.341Z,99.90
2019-05-17T12:47:16.032Z,99.90
2019-05-17T12:49:19.601Z,99.90
2019-05-17T12:51:23.313Z,99.90
2019-05-17T12:53:27.290Z,99.90
2019-05-17T12:55:31.132Z,99.90
2019-05-17T12:57:34.748Z,99.90
2019-05-17T12:59:38.446Z,99.90
2019-05-17T13:01:42.339Z,99.90
2019-05-17T13:03:46.013Z,99.90
2019-05-17T13:05:49.630Z,99.90
2019-05-17T13:07:53.172Z,99.90
2019-05-17T13:09:56.821Z,99.90
2019-05-17T13:12:00.378Z,99.90
2019-05-17T13:14:04.662Z,99.90
2019-05-17T13:16:17.394Z,99.90
2019-05-17T13:18:13.678Z,99.90
2019-05-17T13:20:17.857Z,99.90
2019-05-17T13:22:21.691Z,99.90
2019-05-17T13:24:25.590Z,99.90
2019-05-17T13:26:29.117Z,99.90
2019-05-17T13:28:32.886Z,99.90
2019-05-17T13:30:36.813Z,99.00
2019-05-17T13:32:40.724Z,94.80
2019-05-17T13:34:44.337Z,91.60
2019-05-17T13:36:47.901Z,94.10
2019-05-17T13:38:51.569Z,90.10
2019-05-17T13:40:55.137Z,89.20
2019-05-17T13:42:58.641Z,92.20
2019-05-17T13:45:02.254Z,92.50
2019-05-17T13:47:05.712Z,87.20
2019-05-17T13:49:09.182Z,90.10
2019-05-17T13:51:13.083Z,90.20
2019-05-17T13:53:16.897Z,92.10
2019-05-17T13:55:20.891Z,94.00
2019-05-17T13:57:24.537Z,96.80
2019-05-17T13:59:29.009Z,96.40
2019-05-17T14:01:32.551Z,94.80
2019-05-17T14:03:36.393Z,91.10
2019-05-17T14:05:40.417Z,86.50
2019-05-17T14:07:43.949Z,77.20
2019-05-17T14:09:47.556Z,75.10
2019-05-17T14:11:51.429Z,71.00
2019-05-17T14:13:55.179Z,67.40
2019-05-17T14:15:59.538Z,68.50
2019-05-17T14:18:03.077Z,70.10
2019-05-17T14:20:07.330Z,70.80
2019-05-17T14:22:11.647Z,67.70
2019-05-17T14:24:15.326Z,66.70
2019-05-17T14:26:18.865Z,67.00
2019-05-17T14:28:22.845Z,64.30
2019-05-17T14:30:26.379Z,65.00
2019-05-17T14:32:30.101Z,66.10
2019-05-17T14:34:34.434Z,68.70
2019-05-17T14:36:38.112Z,72.50
2019-05-17T14:38:41.690Z,73.30
2019-05-17T14:41:05.856Z,88.90
2019-05-17T14:42:52.267Z,90.90
2019-05-17T14:44:55.841Z,90.00
2019-05-17T14:46:59.318Z,91.90
2019-05-17T14:49:03.239Z,94.90
2019-05-17T14:51:06.797Z,95.00
2019-05-17T14:53:10.337Z,96.70
2019-05-17T14:55:14.406Z,99.90
2019-05-17T14:57:18.921Z,99.90
2019-05-17T14:59:22.469Z,99.90
2019-05-17T15:01:26.046Z,99.90
2019-05-17T15:03:29.593Z,99.90
2019-05-17T15:05:34.030Z,99.90
2019-05-17T15:07:37.608Z,99.90
2019-05-17T15:09:41.204Z,99.90
2019-05-17T15:11:45.077Z,99.90
2019-05-17T15:13:48.537Z,99.90
2019-05-17T15:15:52.407Z,99.90
2019-05-17T15:17:55.952Z,99.90
2019-05-17T15:20:00.342Z,99.90
2019-05-17T15:22:04.273Z,99.90
2019-05-17T15:24:08.195Z,99.90
2019-05-17T15:26:11.800Z,99.90
2019-05-17T15:28:15.346Z,99.90
2019-05-17T15:30:18.898Z,99.90
2019-05-17T15:32:22.974Z,99.90
2019-05-17T15:34:26.982Z,99.40
2019-05-17T15:36:30.529Z,99.90
2019-05-17T15:38:34.071Z,99.90
2019-05-17T15:40:37.613Z,99.90
2019-05-17T15:42:44.658Z,99.90
2019-05-17T15:44:46.358Z,99.90
2019-05-17T15:46:50.828Z,99.90
2019-05-17T15:48:54.349Z,99.90
2019-05-17T15:50:58.256Z,99.90
2019-05-17T15:53:01.801Z,99.90
2019-05-17T15:55:07.046Z,99.90
2019-05-17T15:57:10.581Z,99.90
2019-05-17T15:59:14.489Z,99.90
2019-05-17T16:01:18.219Z,99.90
2019-05-17T16:03:26.638Z,99.90
2019-05-17T16:05:30.523Z,99.90
2019-05-17T16:07:34.483Z,99.90
2019-05-17T16:09:38.088Z,99.90
2019-05-17T16:11:41.637Z,99.90
2019-05-17T16:13:46.089Z,99.90
2019-05-17T16:15:49.894Z,99.90
2019-05-17T16:17:53.871Z,99.90
2019-05-17T16:19:58.313Z,99.90
2019-05-17T16:22:02.118Z,99.90
2019-05-17T16:24:06.133Z,99.90
2019-05-17T16:26:09.929Z,99.90
2019-05-17T16:28:13.537Z,99.90
2019-05-17T16:30:17.223Z,99.90
2019-05-17T16:32:21.131Z,99.90
2019-05-17T16:34:25.035Z,99.90
2019-05-17T16:36:28.651Z,99.90
2019-05-17T16:38:32.195Z,99.90
2019-05-17T16:40:36.144Z,99.90
2019-05-17T16:42:39.809Z,99.90
2019-05-17T16:44:43.746Z,99.90
2019-05-17T16:46:47.857Z,99.90
2019-05-17T16:48:51.761Z,99.90
2019-05-17T16:50:57.846Z,99.90
2019-05-17T16:53:05.847Z,99.90
2019-05-17T16:55:07.657Z,99.90
2019-05-17T16:57:11.387Z,99.90
2019-05-17T16:59:15.269Z,99.90
2019-05-17T17:01:18.890Z,99.90
2019-05-17T17:03:22.618Z,99.90
2019-05-17T17:05:26.307Z,99.90
2019-05-17T17:07:29.860Z,99.90
2019-05-17T17:09:33.640Z,99.90
2019-05-17T17:11:37.481Z,99.90
2019-05-17T17:13:41.478Z,99.90
2019-05-17T17:15:45.100Z,99.90
2019-05-17T17:17:48.717Z,99.90
2019-05-17T17:19:52.556Z,99.90
2019-05-17T17:21:56.085Z,99.90
2019-05-17T17:24:00.262Z,99.90
2019-05-17T17:26:04.022Z,99.90
2019-05-17T17:28:07.721Z,99.90
2019-05-17T17:30:11.808Z,99.90
2019-05-17T17:32:21.597Z,99.90
2019-05-17T17:34:21.357Z,99.90
2019-05-17T17:36:25.257Z,99.90
2019-05-17T17:38:28.921Z,99.90
2019-05-17T17:40:32.718Z,99.90
2019-05-17T17:42:38.006Z,99.90
2019-05-17T17:44:41.618Z,99.90
2019-05-17T17:46:45.218Z,99.90
2019-05-17T17:48:48.864Z,99.90
2019-05-17T17:50:52.692Z,99.90
2019-05-17T17:52:56.713Z,99.90
2019-05-17T17:55:00.400Z,99.90
2019-05-17T17:57:04.334Z,99.90
2019-05-17T17:59:07.982Z,99.90
2019-05-17T18:01:12.013Z,99.90
2019-05-17T18:03:20.930Z,99.90
2019-05-17T18:05:25.287Z,99.90
2019-05-17T18:07:29.354Z,99.90
2019-05-17T18:09:32.826Z,99.90
2019-05-17T18:11:37.271Z,99.90
2019-05-17T18:13:41.173Z,99.90
2019-05-17T18:15:45.473Z,99.90
2019-05-17T18:17:49.131Z,99.90
2019-05-17T18:19:52.741Z,99.90
2019-05-17T18:21:56.588Z,99.90
2019-05-17T18:24:01.021Z,99.90
2019-05-17T18:26:05.319Z,99.90
2019-05-17T18:28:10.039Z,99.90
2019-05-17T18:30:14.127Z,99.90
2019-05-17T18:32:18.545Z,99.90
2019-05-17T18:34:22.335Z,99.90
2019-05-17T18:36:26.169Z,99.90
2019-05-17T18:38:32.285Z,99.90
2019-05-17T18:40:36.308Z,99.90
2019-05-17T18:42:40.961Z,99.90
2019-05-17T18:44:44.868Z,99.90
2019-05-17T18:46:49.332Z,99.90
2019-05-17T18:48:53.241Z,99.90
2019-05-17T18:50:57.158Z,99.90
2019-05-17T18:53:02.503Z,99.90
2019-05-17T18:55:07.871Z,99.90
2019-05-17T18:57:11.845Z,99.90
2019-05-17T18:59:15.405Z,99.90
2019-05-17T19:01:19.202Z,99.90
2019-05-17T19:03:23.079Z,99.90
2019-05-17T19:05:26.884Z,99.90
2019-05-17T19:07:30.433Z,99.90
2019-05-17T19:09:34.112Z,99.90
2019-05-17T19:11:37.723Z,99.90
2019-05-17T19:13:41.203Z,99.90
2019-05-17T19:15:45.428Z,99.90
2019-05-17T19:17:49.065Z,99.90
2019-05-17T19:19:53.124Z,99.90
2019-05-17T19:21:57.095Z,99.90
2019-05-17T19:24:00.998Z,99.90
2019-05-17T19:26:06.417Z,99.90
2019-05-17T19:28:10.398Z,99.90
2019-05-17T19:30:14.762Z,99.90
2019-05-17T19:32:18.412Z,99.90
2019-05-17T19:34:22.858Z,99.90
2019-05-17T19:36:26.882Z,99.90
2019-05-17T19:38:31.190Z,99.90
2019-05-17T19:40:35.007Z,99.90
2019-05-17T19:42:38.829Z,99.90
2019-05-17T19:44:56.629Z,99.90
2019-05-17T19:46:48.602Z,99.90
2019-05-17T19:48:52.493Z,99.90
2019-05-17T19:50:56.482Z,99.90
2019-05-17T19:53:00.102Z,99.90
2019-05-17T19:55:05.509Z,99.90
2019-05-17T19:57:09.414Z,99.90
2019-05-17T19:59:12.974Z,99.90
2019-05-17T20:01:16.913Z,99.90
2019-05-17T20:03:20.717Z,99.90
2019-05-17T20:05:24.317Z,99.90
2019-05-17T20:07:36.786Z,99.90
2019-05-17T20:09:36.547Z,99.90
2019-05-17T20:11:40.059Z,99.90
2019-05-17T20:13:44.090Z,99.90
2019-05-17T20:15:47.620Z,99.90
2019-05-17T20:17:51.535Z,99.90
2019-05-17T20:19:56.389Z,99.90
2019-05-17T20:22:01.678Z,99.90
2019-05-17T20:24:06.481Z,99.90
2019-05-17T20:26:10.339Z,99.90
2019-05-17T20:28:13.877Z,99.90
2019-05-17T20:30:17.806Z,99.90
2019-05-17T20:32:21.464Z,99.90
2019-05-17T20:34:25.283Z,99.90
2019-05-17T20:36:29.164Z,99.90
2019-05-17T20:38:33.044Z,99.90
2019-05-17T20:40:36.974Z,99.90
2019-05-17T20:42:40.594Z,99.90
2019-05-17T20:44:44.456Z,99.90
2019-05-17T20:46:48.083Z,99.90
2019-05-17T20:48:51.621Z,99.90
2019-05-17T20:50:55.866Z,99.90
2019-05-17T20:52:59.412Z,99.90
2019-05-17T20:55:05.738Z,99.90
2019-05-17T20:57:09.718Z,99.90
2019-05-17T20:59:13.239Z,99.90
2019-05-17T21:01:16.790Z,99.90
2019-05-17T21:03:20.716Z,99.90
2019-05-17T21:05:24.297Z,99.90
2019-05-17T21:07:29.385Z,99.90
2019-05-17T21:09:32.932Z,99.90
2019-05-17T21:11:36.866Z,99.90
2019-05-17T21:13:40.853Z,99.90
2019-05-17T21:15:47.797Z,99.90
2019-05-17T21:17:49.890Z,99.90
2019-05-17T21:19:53.802Z,99.90
2019-05-17T21:21:57.369Z,99.90
2019-05-17T21:24:00.991Z,99.90
2019-05-17T21:26:05.103Z,99.90
2019-05-17T21:28:09.693Z,99.90
2019-05-17T21:30:13.585Z,99.90
2019-05-17T21:32:17.436Z,99.90
2019-05-17T21:34:20.997Z,99.90
2019-05-17T21:36:24.541Z,99.90
2019-05-17T21:38:28.053Z,99.90
2019-05-17T21:40:31.513Z,99.90
2019-05-17T21:42:34.994Z,99.90
2019-05-17T21:44:38.540Z,99.90
2019-05-17T21:46:42.012Z,99.90
2019-05-17T21:48:45.633Z,99.90
2019-05-17T21:50:49.204Z,99.90
2019-05-17T21:52:52.757Z,99.90
2019-05-17T21:54:56.373Z,99.90
2019-05-17T21:56:59.857Z,99.90
2019-05-17T21:59:03.335Z,99.90
2019-05-17T22:01:16.286Z,99.90
2019-05-17T22:03:20.686Z,99.90
2019-05-17T22:05:24.742Z,99.90
2019-05-17T22:07:28.421Z,99.90
2019-05-17T22:09:31.933Z,99.90
2019-05-17T22:11:36.853Z,99.90
2019-05-17T22:13:40.854Z,99.90
2019-05-17T22:15:44.403Z,99.90
2019-05-17T22:17:48.263Z,99.90
2019-05-17T22:19:51.913Z,99.90
2019-05-17T22:21:55.853Z,99.90
2019-05-17T22:23:59.335Z,99.90
2019-05-17T22:26:02.952Z,99.90
2019-05-17T22:28:06.567Z,99.90
2019-05-17T22:30:10.549Z,99.90
2019-05-17T22:32:14.972Z,99.90
2019-05-17T22:34:18.514Z,99.90
2019-05-17T22:36:22.057Z,99.90
2019-05-17T22:38:25.569Z,99.90
2019-05-17T22:40:29.088Z,99.90
2019-05-17T22:42:32.634Z,99.90
2019-05-17T22:44:36.169Z,99.90
2019-05-17T22:46:40.155Z,99.90
2019-05-17T22:48:43.710Z,99.90
2019-05-17T22:50:47.550Z,99.90
2019-05-17T22:52:51.093Z,99.90
2019-05-17T22:54:54.769Z,99.90
2019-05-17T22:56:58.312Z,99.90
2019-05-17T22:59:01.853Z,99.90
2019-05-17T23:01:05.431Z,99.90
2019-05-17T23:03:09.237Z,99.90
2019-05-17T23:05:13.026Z,99.90
2019-05-17T23:07:16.585Z,99.90
2019-05-17T23:09:20.270Z,99.90
2019-05-17T23:11:24.472Z,99.90
2019-05-17T23:13:27.947Z,99.90
2019-05-17T23:15:33.141Z,99.90
2019-05-17T23:17:36.610Z,99.90
2019-05-17T23:19:40.321Z,99.90
2019-05-17T23:21:43.805Z,99.90
2019-05-17T23:23:47.676Z,99.90
2019-05-17T23:25:51.452Z,99.90
2019-05-17T23:27:55.401Z,99.90
2019-05-17T23:29:59.369Z,99.90
2019-05-17T23:32:02.845Z,99.90
2019-05-17T23:34:06.669Z,99.90
2019-05-17T23:36:10.208Z,99.90
2019-05-17T23:38:14.213Z,99.90
2019-05-17T23:40:18.195Z,99.90
2019-05-17T23:42:21.744Z,99.90
2019-05-17T23:44:25.325Z,99.90
2019-05-17T23:46:28.868Z,99.90
2019-05-17T23:48:32.686Z,99.90
2019-05-17T23:50:36.237Z,99.90
2019-05-17T23:52:40.704Z,99.90
2019-05-17T23:54:44.609Z,99.90
2019-05-17T23:56:48.149Z,99.90
2019-05-17T23:58:51.901Z,99.90
